Terminal Aerodrome Forecast
Issued by NWS

Current Version | Previous Version | Text Only | Print | Product List | Glossary On
Versions: 1 2 3 4 5 6 7 8 9 10 11 12 13 14 15 16 17 18 19 20 21 22 23
000
FTUS44 KBMX 311100
TAFTOI
TAF
KTOI 311121Z 3112/0112 34003KT P6SM SKC
     FM311700 31008KT P6SM SCT070
     FM311900 31012G24KT P6SM BKN040
     FM010500 31012KT P6SM SCT040=

USA.gov is the U.S. government's official web portal to all federal, state and local government web resources and services.